createdAt,value
2022-09-06T00:00:40.983Z,19.40
2022-09-06T00:03:43.195Z,19.40
2022-09-06T00:06:56.144Z,19.30
2022-09-06T00:09:57.898Z,19.30
2022-09-06T00:13:05.324Z,19.30
2022-09-06T00:16:18.737Z,19.40
2022-09-06T00:19:20.430Z,19.30
2022-09-06T00:22:22.107Z,19.40
2022-09-06T00:25:23.817Z,19.30
2022-09-06T00:28:25.567Z,19.30
2022-09-06T00:31:27.486Z,19.30
2022-09-06T00:34:29.221Z,19.30
2022-09-06T00:37:31.007Z,19.30
2022-09-06T00:40:35.063Z,19.30
2022-09-06T00:43:37.158Z,19.30
2022-09-06T00:46:41.907Z,19.30
2022-09-06T00:49:48.685Z,19.30
2022-09-06T00:52:52.708Z,19.30
2022-09-06T00:55:55.569Z,19.30
2022-09-06T00:58:57.521Z,19.30
2022-09-06T01:01:59.572Z,19.20
2022-09-06T01:05:02.145Z,19.20
2022-09-06T01:08:45.308Z,19.20
2022-09-06T01:12:19.000Z,19.10
2022-09-06T01:15:48.794Z,19.10
2022-09-06T01:19:28.712Z,19.10
2022-09-06T01:22:57.006Z,19.10
2022-09-06T01:26:27.277Z,19.00
2022-09-06T01:29:39.451Z,19.00
2022-09-06T01:33:05.160Z,19.00
2022-09-06T01:36:12.284Z,19.00
2022-09-06T01:39:26.953Z,19.00
2022-09-06T01:42:31.758Z,18.90
2022-09-06T01:45:56.364Z,19.00
2022-09-06T01:49:28.133Z,18.80
2022-09-06T01:52:44.405Z,18.90
2022-09-06T01:56:15.774Z,18.80
2022-09-06T01:59:37.781Z,18.80
2022-09-06T02:03:07.482Z,18.70
2022-09-06T02:06:17.051Z,18.70
2022-09-06T02:09:23.646Z,18.70
2022-09-06T02:12:29.685Z,18.60
2022-09-06T02:15:39.524Z,18.60
2022-09-06T02:18:46.221Z,18.60
2022-09-06T02:21:49.225Z,18.60
2022-09-06T02:24:53.843Z,18.50
2022-09-06T02:27:55.910Z,18.50
2022-09-06T02:31:02.181Z,18.50
2022-09-06T02:34:04.897Z,18.50
2022-09-06T02:37:07.683Z,18.50
2022-09-06T02:40:10.697Z,18.50
2022-09-06T02:43:12.595Z,18.50
2022-09-06T02:46:14.507Z,18.50
2022-09-06T02:49:16.247Z,18.40
2022-09-06T02:52:17.959Z,18.40
2022-09-06T02:55:19.635Z,18.40
2022-09-06T02:58:21.419Z,18.30
2022-09-06T03:01:23.208Z,18.30
2022-09-06T03:04:24.952Z,18.30
2022-09-06T03:07:26.702Z,18.20
2022-09-06T03:10:28.493Z,18.20
2022-09-06T03:13:30.398Z,18.30
2022-09-06T03:16:32.199Z,18.20
2022-09-06T03:19:33.951Z,18.30
2022-09-06T03:22:36.729Z,18.30
2022-09-06T03:25:38.485Z,18.30
2022-09-06T03:28:40.350Z,18.30
2022-09-06T03:31:42.061Z,18.30
2022-09-06T03:34:43.866Z,18.40
2022-09-06T03:37:45.680Z,18.30
2022-09-06T03:40:48.653Z,18.20
2022-09-06T03:43:50.433Z,18.20
2022-09-06T03:46:52.699Z,18.20
2022-09-06T03:49:54.417Z,18.20
2022-09-06T03:52:56.179Z,18.20
2022-09-06T03:55:58.697Z,18.20
2022-09-06T03:59:00.443Z,18.20
2022-09-06T04:02:02.589Z,18.20
2022-09-06T04:05:04.626Z,18.20
2022-09-06T04:08:06.452Z,18.20
2022-09-06T04:11:08.479Z,18.20
2022-09-06T04:14:10.459Z,18.30
2022-09-06T04:17:12.532Z,18.20
2022-09-06T04:20:15.468Z,18.20
2022-09-06T04:23:18.171Z,18.10
2022-09-06T04:26:20.137Z,18.20
2022-09-06T04:29:21.812Z,18.10
2022-09-06T04:32:23.547Z,18.10
2022-09-06T04:35:25.261Z,18.10
2022-09-06T04:38:29.230Z,18.00
2022-09-06T04:41:31.101Z,18.00
2022-09-06T04:44:32.830Z,18.00
2022-09-06T04:47:34.538Z,18.00
2022-09-06T04:50:36.784Z,17.90
2022-09-06T04:53:38.474Z,17.90
2022-09-06T04:56:40.186Z,17.90
2022-09-06T04:59:41.914Z,17.90
2022-09-06T05:02:45.050Z,17.80
2022-09-06T05:05:46.891Z,18.00
2022-09-06T05:08:49.506Z,17.90
2022-09-06T05:11:51.238Z,17.80
2022-09-06T05:14:53.040Z,17.80
2022-09-06T05:18:03.348Z,17.80
2022-09-06T05:21:05.406Z,17.80
2022-09-06T05:24:09.759Z,17.80
2022-09-06T05:27:12.779Z,17.80
2022-09-06T05:30:15.122Z,17.80
2022-09-06T05:33:21.979Z,17.80
2022-09-06T05:36:24.962Z,17.80
2022-09-06T05:39:26.742Z,17.80
2022-09-06T05:42:28.478Z,17.80
2022-09-06T05:45:30.294Z,17.90
2022-09-06T05:48:36.667Z,17.70
2022-09-06T05:51:39.724Z,17.80
2022-09-06T05:54:41.505Z,17.80
2022-09-06T05:57:43.238Z,17.90
2022-09-06T06:00:45.089Z,17.90
2022-09-06T06:03:51.987Z,18.00
2022-09-06T06:06:53.702Z,18.00
2022-09-06T06:09:55.400Z,17.90
2022-09-06T06:12:57.885Z,18.20
2022-09-06T06:15:59.639Z,18.00
2022-09-06T06:19:01.518Z,18.10
2022-09-06T06:22:03.277Z,18.10
2022-09-06T06:25:05.367Z,18.10
2022-09-06T06:28:07.145Z,18.20
2022-09-06T06:31:10.592Z,18.20
2022-09-06T06:34:12.474Z,18.30
2022-09-06T06:37:14.205Z,18.30
2022-09-06T06:40:16.070Z,18.30
2022-09-06T06:43:18.478Z,18.40
2022-09-06T06:46:21.081Z,18.40
2022-09-06T06:49:35.295Z,18.40
2022-09-06T06:52:37.074Z,18.60
2022-09-06T06:55:39.139Z,18.70
2022-09-06T06:58:41.312Z,19.10
2022-09-06T07:01:43.149Z,19.40
2022-09-06T07:04:45.009Z,19.80
2022-09-06T07:07:46.746Z,20.20
2022-09-06T07:10:48.497Z,20.40
2022-09-06T07:13:50.255Z,20.60
2022-09-06T07:16:57.959Z,20.90
2022-09-06T07:20:15.483Z,21.20
2022-09-06T07:30:20.599Z,21.90
2022-09-06T07:33:22.938Z,21.90
2022-09-06T07:36:25.106Z,21.90
2022-09-06T07:39:26.890Z,21.90
2022-09-06T07:42:35.631Z,21.80
2022-09-06T07:45:38.474Z,22.00
2022-09-06T07:48:42.073Z,22.40
2022-09-06T07:51:44.256Z,22.30
2022-09-06T07:54:45.974Z,22.20
2022-09-06T07:57:47.695Z,22.00
2022-09-06T08:00:49.423Z,21.90
2022-09-06T08:03:52.896Z,21.60
2022-09-06T08:10:18.996Z,21.50
2022-09-06T08:13:20.725Z,21.40
2022-09-06T08:16:24.747Z,21.40
2022-09-06T08:19:34.583Z,21.30
2022-09-06T08:22:36.311Z,21.20
2022-09-06T08:25:38.133Z,21.20
2022-09-06T08:28:39.945Z,21.10
2022-09-06T08:31:43.540Z,21.30
2022-09-06T08:34:45.366Z,21.10
2022-09-06T08:37:47.162Z,21.10
2022-09-06T08:40:48.937Z,21.10
2022-09-06T08:47:26.746Z,21.10
2022-09-06T08:50:29.037Z,21.20
2022-09-06T08:53:48.311Z,21.20
2022-09-06T08:57:04.522Z,21.20
2022-09-06T09:00:12.269Z,21.30
2022-09-06T09:03:24.891Z,21.50
2022-09-06T09:06:27.637Z,21.60
2022-09-06T09:09:32.685Z,21.60
2022-09-06T09:12:42.694Z,21.70
2022-09-06T09:15:44.424Z,21.70
2022-09-06T09:18:50.912Z,21.90
2022-09-06T09:21:52.668Z,22.20
2022-09-06T09:24:59.043Z,22.70
2022-09-06T09:28:01.110Z,23.10
2022-09-06T09:31:03.076Z,23.50
2022-09-06T09:34:05.957Z,23.60
2022-09-06T09:40:54.341Z,23.30
2022-09-06T09:44:09.656Z,23.10
2022-09-06T09:47:32.831Z,23.20
2022-09-06T09:50:36.292Z,23.40
2022-09-06T09:53:53.607Z,23.30
2022-09-06T09:56:57.225Z,23.30
2022-09-06T10:00:04.197Z,23.30
2022-09-06T10:03:18.198Z,23.40
2022-09-06T10:10:20.427Z,23.80
2022-09-06T10:13:31.425Z,23.60
2022-09-06T10:16:45.640Z,24.00
2022-09-06T10:19:48.760Z,24.50
2022-09-06T10:27:04.181Z,24.30
2022-09-06T10:30:08.684Z,24.30
2022-09-06T10:33:19.193Z,24.50
2022-09-06T10:36:32.110Z,24.50
2022-09-06T10:39:45.951Z,24.50
2022-09-06T10:42:53.889Z,24.50
2022-09-06T10:46:05.055Z,24.80
2022-09-06T10:49:11.903Z,24.80
2022-09-06T10:52:19.123Z,24.80
2022-09-06T10:55:22.366Z,24.70
2022-09-06T10:58:29.648Z,24.50
2022-09-06T11:01:39.558Z,24.70
2022-09-06T11:11:58.606Z,24.60
2022-09-06T11:15:11.835Z,24.60
2022-09-06T11:18:24.074Z,24.50
2022-09-06T11:22:04.037Z,24.60
2022-09-06T11:25:24.480Z,24.70
2022-09-06T11:28:45.088Z,24.80
2022-09-06T11:35:29.187Z,24.80
2022-09-06T11:38:30.900Z,24.70
2022-09-06T11:41:39.643Z,24.80
2022-09-06T11:44:50.693Z,24.70
2022-09-06T11:47:52.690Z,24.70
2022-09-06T11:51:06.544Z,24.70
2022-09-06T11:54:23.196Z,24.90
2022-09-06T11:57:26.274Z,24.90
2022-09-06T12:00:27.979Z,25.00
2022-09-06T12:04:09.508Z,25.00
2022-09-06T12:07:12.968Z,25.00
2022-09-06T12:10:29.751Z,25.10
2022-09-06T12:13:56.155Z,25.20
2022-09-06T12:16:57.931Z,25.30
2022-09-06T12:20:07.996Z,25.20
2022-09-06T12:23:35.664Z,25.20
2022-09-06T12:27:23.084Z,25.20
2022-09-06T12:30:38.485Z,25.20
2022-09-06T12:33:40.533Z,25.10
2022-09-06T12:36:54.139Z,25.10
2022-09-06T12:40:00.787Z,25.10
2022-09-06T12:43:49.580Z,25.10
2022-09-06T12:46:52.156Z,24.80
2022-09-06T12:50:15.073Z,25.20
2022-09-06T12:53:24.601Z,25.10
2022-09-06T12:56:28.270Z,25.20
2022-09-06T12:59:30.188Z,25.40
2022-09-06T13:02:37.932Z,25.20
2022-09-06T13:05:42.071Z,25.30
2022-09-06T13:08:49.896Z,25.30
2022-09-06T13:11:52.892Z,25.30
2022-09-06T13:14:56.674Z,25.30
2022-09-06T13:18:31.055Z,25.40
2022-09-06T13:21:33.500Z,25.30
2022-09-06T13:24:35.404Z,25.40
2022-09-06T13:27:37.545Z,25.40
2022-09-06T13:30:42.284Z,25.40
2022-09-06T13:33:45.225Z,25.40
2022-09-06T13:37:11.833Z,25.30
2022-09-06T13:41:09.828Z,25.30
2022-09-06T13:44:24.012Z,25.30
2022-09-06T13:47:30.249Z,25.00
2022-09-06T13:50:33.235Z,25.10
2022-09-06T13:53:40.206Z,25.00
2022-09-06T13:56:45.139Z,25.00
2022-09-06T13:59:46.837Z,25.00
2022-09-06T14:02:49.673Z,25.00
2022-09-06T14:05:54.980Z,25.00
2022-09-06T14:09:08.297Z,25.00
2022-09-06T14:12:11.046Z,25.00
2022-09-06T14:15:13.384Z,24.90
2022-09-06T14:18:15.797Z,25.00
2022-09-06T14:21:17.728Z,24.90
2022-09-06T14:24:19.523Z,25.00
2022-09-06T14:27:21.517Z,25.00
2022-09-06T14:30:23.273Z,25.00
2022-09-06T14:33:25.137Z,25.10
2022-09-06T14:36:29.531Z,25.30
2022-09-06T14:39:31.290Z,25.10
2022-09-06T14:42:32.986Z,25.10
2022-09-06T14:45:34.942Z,25.10
2022-09-06T14:48:41.487Z,25.10
2022-09-06T14:51:44.154Z,25.10
2022-09-06T14:54:45.902Z,25.20
2022-09-06T14:57:47.740Z,25.20
2022-09-06T15:00:51.269Z,25.20
2022-09-06T15:03:59.136Z,25.20
2022-09-06T15:07:00.952Z,25.20
2022-09-06T15:10:03.162Z,25.20
2022-09-06T15:13:05.287Z,25.20
2022-09-06T15:16:09.003Z,25.20
2022-09-06T15:19:10.702Z,25.20
2022-09-06T15:22:12.372Z,25.20
2022-09-06T15:25:14.129Z,25.20
2022-09-06T15:28:16.624Z,25.20
2022-09-06T15:31:19.511Z,25.30
2022-09-06T15:34:23.864Z,25.20
2022-09-06T15:37:25.521Z,25.30
2022-09-06T15:40:27.234Z,25.20
2022-09-06T15:43:31.395Z,25.20
2022-09-06T15:46:36.490Z,25.20
2022-09-06T15:49:38.275Z,25.10
2022-09-06T15:52:39.960Z,25.10
2022-09-06T15:56:00.596Z,25.00
2022-09-06T15:59:02.439Z,25.00
2022-09-06T16:02:04.236Z,25.00
2022-09-06T16:05:06.613Z,25.00
2022-09-06T16:08:08.506Z,24.90
2022-09-06T16:11:16.447Z,24.90
2022-09-06T16:14:18.496Z,24.80
2022-09-06T16:17:21.853Z,24.80
2022-09-06T16:20:23.558Z,24.80
2022-09-06T16:23:25.333Z,24.80
2022-09-06T16:26:32.091Z,24.80
2022-09-06T16:29:33.776Z,24.80
2022-09-06T16:32:35.913Z,24.70
2022-09-06T16:35:41.732Z,24.70
2022-09-06T16:38:43.643Z,24.70
2022-09-06T16:41:46.490Z,24.70
2022-09-06T16:44:48.289Z,24.60
2022-09-06T16:48:22.031Z,24.60
2022-09-06T16:51:27.957Z,24.60
2022-09-06T16:54:29.633Z,24.70
2022-09-06T16:57:31.341Z,24.60
2022-09-06T17:00:33.084Z,24.60
2022-09-06T17:03:38.729Z,24.50
2022-09-06T17:06:46.957Z,24.50
2022-09-06T17:09:48.751Z,24.50
2022-09-06T17:12:50.456Z,24.50
2022-09-06T17:16:20.036Z,24.30
2022-09-06T17:19:23.741Z,24.20
2022-09-06T17:22:25.490Z,24.30
2022-09-06T17:25:27.257Z,24.10
2022-09-06T17:28:32.678Z,24.10
2022-09-06T17:31:35.191Z,24.10
2022-09-06T17:34:38.535Z,24.00
2022-09-06T17:37:40.256Z,24.00
2022-09-06T17:40:42.716Z,24.00
2022-09-06T17:43:44.404Z,23.90
2022-09-06T17:47:09.184Z,23.80
2022-09-06T17:50:09.407Z,23.80
2022-09-06T17:53:11.220Z,23.70
2022-09-06T17:56:16.147Z,23.70
2022-09-06T17:59:17.951Z,23.60
2022-09-06T18:02:19.728Z,23.50
2022-09-06T18:05:21.602Z,23.40
2022-09-06T18:08:23.396Z,23.40
2022-09-06T18:11:31.810Z,23.30
2022-09-06T18:14:33.500Z,23.30
2022-09-06T18:17:35.257Z,23.20
2022-09-06T18:20:37.869Z,23.20
2022-09-06T18:23:39.568Z,23.10
2022-09-06T18:26:42.332Z,23.10
2022-09-06T18:29:44.047Z,23.00
2022-09-06T18:32:45.797Z,23.00
2022-09-06T18:35:50.175Z,22.90
2022-09-06T18:38:51.873Z,22.90
2022-09-06T18:42:07.009Z,22.80
2022-09-06T18:45:09.327Z,22.80
2022-09-06T18:48:11.518Z,22.70
2022-09-06T18:51:14.785Z,22.70
2022-09-06T18:57:41.631Z,22.60
2022-09-06T19:00:43.389Z,22.60
2022-09-06T19:03:45.156Z,22.50
2022-09-06T19:06:46.965Z,22.50
2022-09-06T19:09:48.652Z,22.40
2022-09-06T19:12:53.251Z,22.40
2022-09-06T19:15:56.472Z,22.30
2022-09-06T19:19:11.884Z,22.30
2022-09-06T19:22:13.664Z,22.30
2022-09-06T19:25:15.510Z,22.30
2022-09-06T19:28:17.172Z,22.20
2022-09-06T19:31:19.596Z,22.20
2022-09-06T19:34:22.004Z,22.10
2022-09-06T19:37:26.861Z,22.00
2022-09-06T19:40:30.314Z,22.00
2022-09-06T19:43:32.642Z,21.90
2022-09-06T19:46:35.052Z,21.90
2022-09-06T19:49:36.839Z,21.90
2022-09-06T19:52:38.492Z,21.90
2022-09-06T19:55:40.151Z,21.80
2022-09-06T19:58:43.166Z,21.80
2022-09-06T20:01:46.414Z,21.70
2022-09-06T20:05:48.571Z,21.70
2022-09-06T20:08:52.219Z,21.60
2022-09-06T20:11:53.976Z,21.60
2022-09-06T20:14:58.584Z,21.60
2022-09-06T20:18:00.274Z,21.50
2022-09-06T20:21:02.466Z,21.40
2022-09-06T20:24:04.366Z,21.40
2022-09-06T20:27:06.201Z,21.30
2022-09-06T20:30:08.316Z,21.30
2022-09-06T20:33:12.596Z,21.20
2022-09-06T20:36:14.350Z,21.20
2022-09-06T20:39:32.682Z,21.10
2022-09-06T20:42:34.401Z,21.10
2022-09-06T20:45:36.107Z,21.10
2022-09-06T20:48:43.607Z,21.00
2022-09-06T20:51:45.490Z,21.00
2022-09-06T20:54:47.253Z,21.00
2022-09-06T20:57:49.095Z,20.90
2022-09-06T21:00:52.019Z,20.90
2022-09-06T21:04:06.307Z,20.90
2022-09-06T21:07:08.913Z,20.80
2022-09-06T21:10:11.541Z,20.80
2022-09-06T21:13:13.893Z,20.70
2022-09-06T21:16:17.509Z,20.60
2022-09-06T21:19:21.021Z,20.60
2022-09-06T21:22:22.752Z,20.60
2022-09-06T21:25:24.555Z,20.50
2022-09-06T21:28:31.096Z,20.50
2022-09-06T21:31:35.888Z,20.50
2022-09-06T21:34:37.842Z,20.40
2022-09-06T21:37:39.589Z,20.30
2022-09-06T21:40:41.282Z,20.30
2022-09-06T21:43:43.746Z,20.30
2022-09-06T21:46:45.590Z,20.30
2022-09-06T21:50:22.243Z,20.40
2022-09-06T21:53:26.002Z,20.20
2022-09-06T21:56:27.740Z,20.10
2022-09-06T21:59:29.442Z,20.00
2022-09-06T22:02:31.241Z,20.00
2022-09-06T22:05:33.336Z,19.90
2022-09-06T22:08:35.077Z,19.90
2022-09-06T22:11:39.539Z,19.80
2022-09-06T22:14:41.307Z,19.80
2022-09-06T22:17:43.155Z,19.80
2022-09-06T22:20:44.864Z,19.80
2022-09-06T22:23:57.100Z,19.80
2022-09-06T22:26:58.818Z,19.70
2022-09-06T22:30:00.521Z,19.70
2022-09-06T22:33:02.200Z,19.70
2022-09-06T22:36:05.428Z,19.60
2022-09-06T22:39:07.366Z,19.60
2022-09-06T22:42:09.131Z,19.60
2022-09-06T22:45:10.933Z,19.50
2022-09-06T22:48:19.692Z,19.60
2022-09-06T22:51:21.624Z,19.50
2022-09-06T22:54:23.427Z,19.60
2022-09-06T22:57:26.769Z,19.50
2022-09-06T23:00:28.722Z,19.50
2022-09-06T23:03:30.566Z,19.40
2022-09-06T23:06:32.488Z,19.40
2022-09-06T23:09:34.621Z,19.40
2022-09-06T23:12:36.344Z,19.40
2022-09-06T23:15:40.687Z,19.40
2022-09-06T23:18:42.705Z,19.30
2022-09-06T23:21:44.381Z,19.30
2022-09-06T23:24:46.260Z,19.30
2022-09-06T23:27:47.952Z,19.30
2022-09-06T23:31:01.838Z,19.30
2022-09-06T23:34:03.693Z,19.20
2022-09-06T23:37:06.620Z,19.20
2022-09-06T23:40:09.328Z,19.20
2022-09-06T23:43:11.208Z,19.20
2022-09-06T23:46:14.698Z,19.10
2022-09-06T23:49:16.536Z,19.10
2022-09-06T23:52:18.530Z,19.10
2022-09-06T23:55:20.242Z,19.00
2022-09-06T23:58:22.005Z,19.00
